createdAt,value
2019-04-05T00:00:45.729Z,51.21
2019-04-05T00:01:45.750Z,51.21
2019-04-05T00:02:45.704Z,51.32
2019-04-05T00:03:45.743Z,51.42
2019-04-05T00:04:45.690Z,51.52
2019-04-05T00:05:45.674Z,51.62
2019-04-05T00:06:45.672Z,51.62
2019-04-05T00:07:45.655Z,51.12
2019-04-05T00:08:45.662Z,51.24
2019-04-05T00:09:45.649Z,51.72
2019-04-05T00:10:45.616Z,51.85
2019-04-05T00:11:45.632Z,51.34
2019-04-05T00:12:45.605Z,51.85
2019-04-05T00:13:45.639Z,51.44
2019-04-05T00:14:45.583Z,51.44
2019-04-05T00:15:45.569Z,51.34
2019-04-05T00:16:45.617Z,51.44
2019-04-05T00:17:45.546Z,51.95
2019-04-05T00:18:45.555Z,51.44
2019-04-05T00:19:45.520Z,51.65
2019-04-05T00:20:45.560Z,51.34
2019-04-05T00:21:45.545Z,51.34
2019-04-05T00:22:45.488Z,51.44
2019-04-05T00:23:45.481Z,51.14
2019-04-05T00:24:45.611Z,51.44
2019-04-05T00:25:45.464Z,51.34
2019-04-05T00:26:45.457Z,51.95
2019-04-05T00:27:45.525Z,52.69
2019-04-05T00:28:45.424Z,51.95
2019-04-05T00:29:45.439Z,51.77
2019-04-05T00:30:45.417Z,52.08
2019-04-05T00:31:45.391Z,52.38
2019-04-05T00:32:45.392Z,52.69
2019-04-05T00:33:45.371Z,52.28
2019-04-05T00:34:45.409Z,52.18
2019-04-05T00:35:45.348Z,52.18
2019-04-05T00:36:45.339Z,52.28
2019-04-05T00:37:45.328Z,53.09
2019-04-05T00:38:45.349Z,52.69
2019-04-05T00:39:45.301Z,52.28
2019-04-05T00:40:45.311Z,52.99
2019-04-05T00:41:45.285Z,52.38
2019-04-05T00:42:45.271Z,52.79
2019-04-05T00:43:45.292Z,52.38
2019-04-05T00:44:45.269Z,52.18
2019-04-05T00:45:45.290Z,52.69
2019-04-05T00:46:45.238Z,52.38
2019-04-05T00:47:45.223Z,52.08
2019-04-05T00:48:45.229Z,52.40
2019-04-05T00:49:45.202Z,52.20
2019-04-05T00:50:45.225Z,52.99
2019-04-05T00:51:45.179Z,52.30
2019-04-05T00:52:45.163Z,52.20
2019-04-05T00:53:45.167Z,52.61
2019-04-05T00:54:45.144Z,52.30
2019-04-05T00:55:45.166Z,52.40
2019-04-05T00:56:45.127Z,52.10
2019-04-05T00:57:45.134Z,53.12
2019-04-05T00:58:45.227Z,52.91
2019-04-05T00:59:45.098Z,52.71
2019-04-05T01:00:45.088Z,53.02
2019-04-05T01:01:45.088Z,52.91
2019-04-05T01:02:45.061Z,52.71
2019-04-05T01:03:45.056Z,52.61
2019-04-05T01:04:45.039Z,52.40
2019-04-05T01:05:45.067Z,52.40
2019-04-05T01:06:45.031Z,52.73
2019-04-05T01:07:45.017Z,52.40
2019-04-05T01:08:44.992Z,52.73
2019-04-05T01:09:44.987Z,52.61
2019-04-05T01:10:44.967Z,52.43
2019-04-05T01:11:44.983Z,52.63
2019-04-05T01:12:44.963Z,52.53
2019-04-05T01:13:44.939Z,52.53
2019-04-05T01:14:44.936Z,52.33
2019-04-05T01:15:44.923Z,52.63
2019-04-05T01:16:44.924Z,53.24
2019-04-05T01:17:44.894Z,52.43
2019-04-05T01:18:44.912Z,52.73
2019-04-05T01:19:44.876Z,52.73
2019-04-05T01:20:44.870Z,52.33
2019-04-05T01:21:44.881Z,52.43
2019-04-05T01:22:44.883Z,52.63
2019-04-05T01:23:44.833Z,53.04
2019-04-05T01:24:44.831Z,52.53
2019-04-05T01:25:44.830Z,52.53
2019-04-05T01:26:44.808Z,52.73
2019-04-05T01:27:44.817Z,52.43
2019-04-05T01:28:44.777Z,52.43
2019-04-05T01:29:44.769Z,53.27
2019-04-05T01:30:44.767Z,53.34
2019-04-05T01:31:44.748Z,52.25
2019-04-05T01:32:44.745Z,52.73
2019-04-05T01:33:44.723Z,53.24
2019-04-05T01:34:44.714Z,53.24
2019-04-05T01:35:45.637Z,52.45
2019-04-05T01:36:44.689Z,53.45
2019-04-05T01:37:44.697Z,53.37
2019-04-05T01:38:44.687Z,53.47
2019-04-05T01:39:44.688Z,53.37
2019-04-05T01:40:44.654Z,53.57
2019-04-05T01:41:44.640Z,53.67
2019-04-05T01:42:44.651Z,53.27
2019-04-05T01:43:44.625Z,53.37
2019-04-05T01:44:44.611Z,53.57
2019-04-05T01:45:53.481Z,53.17
2019-04-05T01:46:45.593Z,53.57
2019-04-05T01:47:44.603Z,53.67
2019-04-05T01:48:44.560Z,53.47
2019-04-05T01:49:44.556Z,53.37
2019-04-05T01:50:44.538Z,53.17
2019-04-05T01:51:44.534Z,53.37
2019-04-05T01:52:44.518Z,53.67
2019-04-05T01:53:44.550Z,53.47
2019-04-05T01:54:44.505Z,53.37
2019-04-05T01:55:44.498Z,53.37
2019-04-05T01:56:44.474Z,53.17
2019-04-05T01:57:44.467Z,53.06
2019-04-05T01:58:44.474Z,53.67
2019-04-05T01:59:44.451Z,53.67
2019-04-05T02:00:44.431Z,54.49
2019-04-05T02:01:44.419Z,53.98
2019-04-05T02:02:44.409Z,53.47
2019-04-05T02:03:44.430Z,53.50
2019-04-05T02:04:44.393Z,53.78
2019-04-05T02:05:44.377Z,53.90
2019-04-05T02:06:44.369Z,54.31
2019-04-05T02:07:44.427Z,54.41
2019-04-05T02:08:44.367Z,53.59
2019-04-05T02:09:44.334Z,54.21
2019-04-05T02:10:44.321Z,54.31
2019-04-05T02:11:44.317Z,54.21
2019-04-05T02:12:44.299Z,53.90
2019-04-05T02:13:44.303Z,54.11
2019-04-05T02:14:44.287Z,54.00
2019-04-05T02:15:44.278Z,53.90
2019-04-05T02:16:44.259Z,54.21
2019-04-05T02:17:44.252Z,54.11
2019-04-05T02:18:44.265Z,54.00
2019-04-05T02:19:44.235Z,54.21
2019-04-05T02:20:44.223Z,54.41
2019-04-05T02:21:44.207Z,54.51
2019-04-05T02:22:44.269Z,53.80
2019-04-05T02:23:44.220Z,53.80
2019-04-05T02:24:44.175Z,54.21
2019-04-05T02:25:44.165Z,54.11
2019-04-05T02:26:44.151Z,54.31
2019-04-05T02:27:44.170Z,54.21
2019-04-05T02:28:44.169Z,54.31
2019-04-05T02:29:44.119Z,53.70
2019-04-05T02:30:44.111Z,54.21
2019-04-05T02:31:44.117Z,54.21
2019-04-05T02:32:44.092Z,53.70
2019-04-05T02:33:44.669Z,54.13
2019-04-05T02:34:44.095Z,54.33
2019-04-05T02:35:44.053Z,54.11
2019-04-05T02:36:44.044Z,54.03
2019-04-05T02:37:44.039Z,54.13
2019-04-05T02:38:44.023Z,54.74
2019-04-05T02:39:44.031Z,54.33
2019-04-05T02:40:44.002Z,53.83
2019-04-05T02:41:43.993Z,54.24
2019-04-05T02:42:44.068Z,53.93
2019-04-05T02:43:43.984Z,54.33
2019-04-05T02:44:44.092Z,54.74
2019-04-05T02:45:43.990Z,54.03
2019-04-05T02:46:43.944Z,54.33
2019-04-05T02:47:43.925Z,54.03
2019-04-05T02:48:43.925Z,54.74
2019-04-05T02:49:43.917Z,54.54
2019-04-05T02:50:43.900Z,53.93
2019-04-05T02:51:43.906Z,54.54
2019-04-05T02:52:43.876Z,54.33
2019-04-05T02:53:43.860Z,54.57
2019-04-05T02:54:43.904Z,53.75
2019-04-05T02:55:43.842Z,54.66
2019-04-05T02:56:43.839Z,54.57
2019-04-05T02:57:43.834Z,54.05
2019-04-05T02:58:43.825Z,54.26
2019-04-05T02:59:43.829Z,54.57
2019-04-05T03:00:43.796Z,54.26
2019-04-05T03:01:43.775Z,54.97
2019-04-05T03:02:43.790Z,54.97
2019-04-05T03:03:43.769Z,54.46
2019-04-05T03:04:43.779Z,54.97
2019-04-05T03:05:43.733Z,54.46
2019-04-05T03:06:43.727Z,54.97
2019-04-05T03:07:43.727Z,54.87
2019-04-05T03:08:43.729Z,53.96
2019-04-05T03:09:43.718Z,54.87
2019-04-05T03:10:43.683Z,54.66
2019-04-05T03:11:43.670Z,54.77
2019-04-05T03:12:43.667Z,55.20
2019-04-05T03:13:43.659Z,55.00
2019-04-05T03:14:43.672Z,54.97
2019-04-05T03:15:43.631Z,55.00
2019-04-05T03:16:43.623Z,55.30
2019-04-05T03:17:43.611Z,55.58
2019-04-05T03:18:43.616Z,55.20
2019-04-05T03:19:43.644Z,55.41
2019-04-05T03:20:43.590Z,55.61
2019-04-05T03:21:43.571Z,55.81
2019-04-05T03:22:43.554Z,55.41
2019-04-05T03:23:43.540Z,55.71
2019-04-05T03:24:43.538Z,55.53
2019-04-05T03:25:43.536Z,55.33
2019-04-05T03:26:43.521Z,55.51
2019-04-05T03:27:43.502Z,55.43
2019-04-05T03:28:43.491Z,55.84
2019-04-05T03:29:43.476Z,55.74
2019-04-05T03:30:43.511Z,55.71
2019-04-05T03:31:43.460Z,55.71
2019-04-05T03:32:43.459Z,55.53
2019-04-05T03:33:43.448Z,55.41
2019-04-05T03:34:43.425Z,55.91
2019-04-05T03:35:43.442Z,56.02
2019-04-05T03:36:43.432Z,55.91
2019-04-05T03:37:43.405Z,56.22
2019-04-05T03:38:43.397Z,55.71
2019-04-05T03:39:43.370Z,55.74
2019-04-05T03:40:43.385Z,55.84
2019-04-05T03:41:43.358Z,56.02
2019-04-05T03:42:43.355Z,55.84
2019-04-05T03:43:43.343Z,55.51
2019-04-05T03:44:43.312Z,55.84
2019-04-05T03:45:43.353Z,56.24
2019-04-05T03:46:56.344Z,56.35
2019-04-05T03:47:44.293Z,56.55
2019-04-05T03:48:43.276Z,56.45
2019-04-05T03:49:43.275Z,55.87
2019-04-05T03:50:45.265Z,56.58
2019-04-05T03:51:43.238Z,56.24
2019-04-05T03:52:43.233Z,56.04
2019-04-05T03:53:43.238Z,56.35
2019-04-05T03:54:43.217Z,56.24
2019-04-05T03:55:43.228Z,56.17
2019-04-05T03:56:43.187Z,56.48
2019-04-05T03:57:43.178Z,56.15
2019-04-05T03:58:43.164Z,56.17
2019-04-05T03:59:43.267Z,56.24
2019-04-05T04:00:43.175Z,56.07
2019-04-05T04:01:43.151Z,56.37
2019-04-05T04:02:43.120Z,56.27
2019-04-05T04:03:43.151Z,56.58
2019-04-05T04:04:43.103Z,56.58
2019-04-05T04:05:43.118Z,57.29
2019-04-05T04:06:43.089Z,57.09
2019-04-05T04:07:43.064Z,56.78
2019-04-05T04:08:43.062Z,56.68
2019-04-05T04:09:43.075Z,56.78
2019-04-05T04:10:43.058Z,56.78
2019-04-05T04:11:43.056Z,57.19
2019-04-05T04:12:43.029Z,56.58
2019-04-05T04:13:43.017Z,56.68
2019-04-05T04:14:43.000Z,56.88
2019-04-05T04:15:42.983Z,56.99
2019-04-05T04:16:43.000Z,56.78
2019-04-05T04:17:42.966Z,56.99
2019-04-05T04:18:42.977Z,57.29
2019-04-05T04:19:42.945Z,57.39
2019-04-05T04:20:42.935Z,57.19
2019-04-05T04:21:42.947Z,57.09
2019-04-05T04:22:42.906Z,57.19
2019-04-05T04:23:42.906Z,57.19
2019-04-05T04:24:42.908Z,57.39
2019-04-05T04:25:42.875Z,57.39
2019-04-05T04:26:42.880Z,57.62
2019-04-05T04:27:42.857Z,57.21
2019-04-05T04:28:42.842Z,57.12
2019-04-05T04:29:42.841Z,57.42
2019-04-05T04:30:42.819Z,57.52
2019-04-05T04:31:42.826Z,57.32
2019-04-05T04:32:42.852Z,57.01
2019-04-05T04:33:42.801Z,57.52
2019-04-05T04:34:42.779Z,58.03
2019-04-05T04:35:42.784Z,57.73
2019-04-05T04:36:42.786Z,58.03
2019-04-05T04:37:42.748Z,57.73
2019-04-05T04:38:42.737Z,58.03
2019-04-05T04:39:42.734Z,58.44
2019-04-05T04:40:42.716Z,58.64
2019-04-05T04:41:42.728Z,58.14
2019-04-05T04:42:42.688Z,58.44
2019-04-05T04:43:42.676Z,58.23
2019-04-05T04:44:42.672Z,58.03
2019-04-05T04:45:42.678Z,58.23
2019-04-05T04:46:42.689Z,58.03
2019-04-05T04:47:42.662Z,58.23
2019-04-05T04:48:42.626Z,58.03
2019-04-05T04:49:42.626Z,58.23
2019-04-05T04:50:42.606Z,58.14
2019-04-05T04:51:42.638Z,57.93
2019-04-05T04:52:42.602Z,58.23
2019-04-05T04:53:42.577Z,58.14
2019-04-05T04:54:42.562Z,58.03
2019-04-05T04:55:42.553Z,58.26
2019-04-05T04:56:42.585Z,58.03
2019-04-05T04:57:42.532Z,58.26
2019-04-05T04:58:42.525Z,58.16
2019-04-05T04:59:42.508Z,58.34
2019-04-05T05:00:42.505Z,58.23
2019-04-05T05:01:42.487Z,58.34
2019-04-05T05:02:42.496Z,58.26
2019-04-05T05:03:42.519Z,58.67
2019-04-05T05:04:42.471Z,58.16
2019-04-05T05:05:42.447Z,58.87
2019-04-05T05:06:42.438Z,59.49
2019-04-05T05:07:42.455Z,58.44
2019-04-05T05:08:42.432Z,58.47
2019-04-05T05:09:42.410Z,58.37
2019-04-05T05:10:42.419Z,58.98
2019-04-05T05:11:42.388Z,58.87
2019-04-05T05:12:42.395Z,59.08
2019-04-05T05:13:42.428Z,58.95
2019-04-05T05:14:42.366Z,58.67
2019-04-05T05:15:42.346Z,58.47
2019-04-05T05:16:42.344Z,58.37
2019-04-05T05:17:42.344Z,58.47
2019-04-05T05:18:42.305Z,58.64
2019-04-05T05:19:42.297Z,58.47
2019-04-05T05:20:42.823Z,58.98
2019-04-05T05:21:42.286Z,58.47
2019-04-05T05:22:42.299Z,58.87
2019-04-05T05:23:42.257Z,58.64
2019-04-05T05:24:42.240Z,58.44
2019-04-05T05:25:42.230Z,59.05
2019-04-05T05:26:42.218Z,58.95
2019-04-05T05:27:42.301Z,58.95
2019-04-05T05:28:42.202Z,58.34
2019-04-05T05:29:42.184Z,58.54
2019-04-05T05:30:42.175Z,58.44
2019-04-05T05:31:42.167Z,58.14
2019-04-05T05:32:42.171Z,58.44
2019-04-05T05:33:42.154Z,58.14
2019-04-05T05:34:42.178Z,58.23
2019-04-05T05:35:42.122Z,58.75
2019-04-05T05:36:42.112Z,58.44
2019-04-05T05:37:42.128Z,58.85
2019-04-05T05:38:42.101Z,59.46
2019-04-05T05:39:42.115Z,58.03
2019-04-05T05:40:42.078Z,58.64
2019-04-05T05:41:42.071Z,58.23
2019-04-05T05:42:42.068Z,58.34
2019-04-05T05:43:42.062Z,58.03
2019-04-05T05:44:42.029Z,58.44
2019-04-05T05:45:42.033Z,58.34
2019-04-05T05:46:42.011Z,58.34
2019-04-05T05:47:51.718Z,58.54
2019-04-05T05:48:43.242Z,58.03
2019-04-05T05:49:41.977Z,59.05
2019-04-05T05:50:41.981Z,58.34
2019-04-05T05:51:41.950Z,58.44
2019-04-05T05:52:41.942Z,58.54
2019-04-05T05:53:41.976Z,58.64
2019-04-05T05:54:41.939Z,58.64
2019-04-05T05:55:41.924Z,58.54
2019-04-05T05:56:41.920Z,57.93
2019-04-05T05:57:41.907Z,58.41
2019-04-05T05:58:41.926Z,58.54
2019-04-05T05:59:41.870Z,58.41
2019-04-05T06:00:41.865Z,58.23
2019-04-05T06:01:41.901Z,58.44
2019-04-05T06:02:41.854Z,58.64
2019-04-05T06:03:41.866Z,58.64
2019-04-05T06:04:41.817Z,58.85
2019-04-05T06:05:41.816Z,58.85
2019-04-05T06:06:41.811Z,58.85
2019-04-05T06:07:41.798Z,58.85
2019-04-05T06:08:41.800Z,58.95
2019-04-05T06:09:41.764Z,58.85
2019-04-05T06:10:41.757Z,59.05
2019-04-05T06:11:41.756Z,59.16
2019-04-05T06:12:41.752Z,59.05
2019-04-05T06:13:41.760Z,59.26
2019-04-05T06:14:41.752Z,59.05
2019-04-05T06:15:41.724Z,59.16
2019-04-05T06:16:46.652Z,59.26
2019-04-05T06:17:42.688Z,59.26
2019-04-05T06:18:41.694Z,58.44
2019-04-05T06:19:41.676Z,59.26
2019-04-05T06:20:41.658Z,59.16
2019-04-05T06:21:41.642Z,59.05
2019-04-05T06:22:41.630Z,59.16
2019-04-05T06:23:41.655Z,59.05
2019-04-05T06:24:41.620Z,59.39
2019-04-05T06:25:41.636Z,59.46
2019-04-05T06:26:41.600Z,60.30
2019-04-05T06:27:41.571Z,60.51
2019-04-05T06:28:41.933Z,60.82
2019-04-05T06:29:41.552Z,60.92
2019-04-05T06:30:41.545Z,61.25
2019-04-05T06:31:41.535Z,60.94
2019-04-05T06:32:41.514Z,61.69
2019-04-05T06:33:41.548Z,62.61
2019-04-05T06:34:41.494Z,63.12
2019-04-05T06:35:41.494Z,63.02
2019-04-05T06:36:41.479Z,62.95
2019-04-05T06:37:41.472Z,63.45
2019-04-05T06:38:41.490Z,63.25
2019-04-05T06:39:41.480Z,63.56
2019-04-05T06:40:41.468Z,64.27
2019-04-05T06:41:41.444Z,64.37
2019-04-05T06:42:41.417Z,64.58
2019-04-05T06:43:41.416Z,65.19
2019-04-05T06:44:41.388Z,64.92
2019-04-05T06:45:41.421Z,65.22
2019-04-05T06:46:41.360Z,65.63
2019-04-05T06:47:41.363Z,65.63
2019-04-05T06:48:41.389Z,65.94
2019-04-05T06:49:41.358Z,65.12
2019-04-05T06:50:41.327Z,65.94
2019-04-05T06:51:41.338Z,65.94
2019-04-05T06:52:41.307Z,65.91
2019-04-05T06:53:41.298Z,65.91
2019-04-05T06:54:41.304Z,65.19
2019-04-05T06:55:41.282Z,64.78
2019-04-05T06:56:41.257Z,64.78
2019-04-05T06:57:41.246Z,65.09
2019-04-05T06:58:41.248Z,65.16
2019-04-05T06:59:41.257Z,65.70
2019-04-05T07:00:41.228Z,66.01
2019-04-05T07:01:41.226Z,65.98
2019-04-05T07:02:41.206Z,65.88
2019-04-05T07:03:41.188Z,65.91
2019-04-05T07:04:41.202Z,65.40
2019-04-05T07:05:41.174Z,65.70
2019-04-05T07:06:41.184Z,65.50
2019-04-05T07:07:41.156Z,65.40
2019-04-05T07:08:53.027Z,65.60
2019-04-05T07:09:42.143Z,65.70
2019-04-05T07:10:41.118Z,65.88
2019-04-05T07:11:41.092Z,65.98
2019-04-05T07:12:41.098Z,65.88
2019-04-05T07:13:41.077Z,66.08
2019-04-05T07:14:41.102Z,66.08
2019-04-05T07:15:41.062Z,65.77
2019-04-05T07:16:41.063Z,66.39
2019-04-05T07:17:41.036Z,66.69
2019-04-05T07:18:41.041Z,67.03
2019-04-05T07:19:41.048Z,67.54
2019-04-05T07:20:41.002Z,67.68
2019-04-05T07:21:40.997Z,67.47
2019-04-05T07:22:41.016Z,68.22
2019-04-05T07:23:40.982Z,68.80
2019-04-05T07:24:40.983Z,68.84
2019-04-05T07:25:40.945Z,68.90
2019-04-05T07:26:40.936Z,69.01
2019-04-05T07:27:40.932Z,68.08
2019-04-05T07:28:40.913Z,68.90
2019-04-05T07:29:40.922Z,69.24
2019-04-05T07:30:40.914Z,69.62
2019-04-05T07:31:40.892Z,69.65
2019-04-05T07:32:40.870Z,70.16
2019-04-05T07:33:40.874Z,70.67
2019-04-05T07:34:40.880Z,70.29
2019-04-05T07:35:40.847Z,71.22
2019-04-05T07:36:40.832Z,71.12
2019-04-05T07:37:40.832Z,71.22
2019-04-05T07:38:40.812Z,71.73
2019-04-05T07:39:40.842Z,71.22
2019-04-05T07:40:40.787Z,71.86
2019-04-05T07:41:40.797Z,71.86
2019-04-05T07:42:40.809Z,72.07
2019-04-05T07:43:40.758Z,73.30
2019-04-05T07:44:40.901Z,72.48
2019-04-05T07:45:40.762Z,72.58
2019-04-05T07:46:40.724Z,72.82
2019-04-05T07:47:40.730Z,73.54
2019-04-05T07:48:45.223Z,73.13
2019-04-05T07:49:40.698Z,73.27
2019-04-05T07:50:40.702Z,73.95
2019-04-05T07:51:40.672Z,73.74
2019-04-05T07:52:40.664Z,74.29
2019-04-05T07:53:40.652Z,74.29
2019-04-05T07:54:40.649Z,73.98
2019-04-05T07:55:40.656Z,74.39
2019-04-05T07:56:40.630Z,74.73
2019-04-05T07:57:40.616Z,74.60
2019-04-05T07:58:40.605Z,75.01
2019-04-05T07:59:40.643Z,74.05
2019-04-05T08:00:40.608Z,73.54
2019-04-05T08:01:40.572Z,73.13
2019-04-05T08:02:40.556Z,73.33
2019-04-05T08:03:40.546Z,74.05
2019-04-05T08:04:40.543Z,74.05
2019-04-05T08:05:40.552Z,73.44
2019-04-05T08:06:40.512Z,73.88
2019-04-05T08:07:40.510Z,73.98
2019-04-05T08:08:40.510Z,74.29
2019-04-05T08:09:40.478Z,74.36
2019-04-05T08:10:40.497Z,73.74
2019-04-05T08:11:40.470Z,74.05
2019-04-05T08:12:40.441Z,73.85
2019-04-05T08:13:40.450Z,74.26
2019-04-05T08:14:40.421Z,74.46
2019-04-05T08:15:40.453Z,74.77
2019-04-05T08:16:40.411Z,75.31
2019-04-05T08:17:40.439Z,75.73
2019-04-05T08:18:40.376Z,75.82
2019-04-05T08:19:40.381Z,75.93
2019-04-05T08:20:40.393Z,75.62
2019-04-05T08:21:40.349Z,75.73
2019-04-05T08:22:40.345Z,75.48
2019-04-05T08:23:40.322Z,75.59
2019-04-05T08:24:40.319Z,75.28
2019-04-05T08:25:41.252Z,74.87
2019-04-05T08:26:40.292Z,74.63
2019-04-05T08:27:40.287Z,74.43
2019-04-05T08:28:40.283Z,74.84
2019-04-05T08:29:40.268Z,74.94
2019-04-05T08:30:40.303Z,74.73
2019-04-05T08:31:40.288Z,74.69
2019-04-05T08:32:40.226Z,74.63
2019-04-05T08:33:40.225Z,74.84
2019-04-05T08:34:40.229Z,75.24
2019-04-05T08:35:40.233Z,75.18
2019-04-05T08:36:40.204Z,75.18
2019-04-05T08:37:40.176Z,75.38
2019-04-05T08:38:40.192Z,75.24
2019-04-05T08:39:40.182Z,75.14
2019-04-05T08:40:40.221Z,74.94
2019-04-05T08:41:40.142Z,74.69
2019-04-05T08:42:40.129Z,74.60
2019-04-05T08:43:40.131Z,73.13
2019-04-05T08:44:40.598Z,73.44
2019-04-05T08:45:40.113Z,73.33
2019-04-05T08:46:40.114Z,73.64
2019-04-05T08:47:40.073Z,73.44
2019-04-05T08:48:40.070Z,73.44
2019-04-05T08:49:40.049Z,72.62
2019-04-05T08:50:40.037Z,73.13
2019-04-05T08:51:40.048Z,73.44
2019-04-05T08:52:40.041Z,73.54
2019-04-05T08:53:40.010Z,73.64
2019-04-05T08:54:40.019Z,73.03
2019-04-05T08:55:39.985Z,72.82
2019-04-05T08:56:40.026Z,73.33
2019-04-05T08:57:39.988Z,73.64
2019-04-05T08:58:39.952Z,73.78
2019-04-05T08:59:39.945Z,74.19
2019-04-05T09:00:39.929Z,74.60
2019-04-05T09:01:39.977Z,74.80
2019-04-05T09:02:39.937Z,74.60
2019-04-05T09:03:39.899Z,74.29
2019-04-05T09:04:39.888Z,74.56
2019-04-05T09:05:39.884Z,73.10
2019-04-05T09:06:39.931Z,73.44
2019-04-05T09:07:39.857Z,74.15
2019-04-05T09:08:39.851Z,73.74
2019-04-05T09:09:39.857Z,74.35
2019-04-05T09:10:39.838Z,74.56
2019-04-05T09:11:39.876Z,74.76
2019-04-05T09:12:39.808Z,74.66
2019-04-05T09:13:39.797Z,75.10
2019-04-05T09:14:39.790Z,75.52
2019-04-05T09:15:39.765Z,75.52
2019-04-05T09:16:39.795Z,75.76
2019-04-05T09:17:39.750Z,75.93
2019-04-05T09:18:39.742Z,75.82
2019-04-05T09:19:39.737Z,75.31
2019-04-05T09:20:39.729Z,75.55
2019-04-05T09:21:40.732Z,75.86
2019-04-05T09:22:39.714Z,76.06
2019-04-05T09:23:39.685Z,76.51
2019-04-05T09:24:39.685Z,76.27
2019-04-05T09:25:39.664Z,76.37
2019-04-05T09:26:39.679Z,76.13
2019-04-05T09:27:39.647Z,75.82
2019-04-05T09:28:39.637Z,75.82
2019-04-05T09:29:39.618Z,76.17
2019-04-05T09:30:39.605Z,76.78
2019-04-05T09:31:39.636Z,76.78
2019-04-05T09:32:39.588Z,77.02
2019-04-05T09:33:39.591Z,77.33
2019-04-05T09:34:39.560Z,77.53
2019-04-05T09:35:39.547Z,77.53
2019-04-05T09:36:39.594Z,78.05
2019-04-05T09:37:39.539Z,78.35
2019-04-05T09:38:39.521Z,77.64
2019-04-05T09:39:39.527Z,77.33
2019-04-05T09:40:39.522Z,77.64
2019-04-05T09:41:39.571Z,78.05
2019-04-05T09:42:39.483Z,77.23
2019-04-05T09:43:39.480Z,78.25
2019-04-05T09:44:39.465Z,78.42
2019-04-05T09:45:39.468Z,78.56
2019-04-05T09:46:46.937Z,78.35
2019-04-05T09:47:40.443Z,78.97
2019-04-05T09:48:39.421Z,78.66
2019-04-05T09:49:39.418Z,79.07
2019-04-05T09:50:39.398Z,78.76
2019-04-05T09:51:39.405Z,78.45
2019-04-05T09:52:40.176Z,79.17
2019-04-05T09:53:39.354Z,78.76
2019-04-05T09:54:39.373Z,78.76
2019-04-05T09:55:39.347Z,78.97
2019-04-05T09:56:39.381Z,78.97
2019-04-05T09:57:39.335Z,78.86
2019-04-05T09:58:39.305Z,79.07
2019-04-05T09:59:39.295Z,78.66
2019-04-05T10:00:39.293Z,78.97
2019-04-05T10:01:39.298Z,79.58
2019-04-05T10:02:39.275Z,79.68
2019-04-05T10:03:39.251Z,79.68
2019-04-05T10:04:39.241Z,79.89
2019-04-05T10:05:39.245Z,80.03
2019-04-05T10:06:39.247Z,80.19
2019-04-05T10:07:53.891Z,79.99
2019-04-05T10:08:40.202Z,79.79
2019-04-05T10:09:39.189Z,79.07
2019-04-05T10:10:39.188Z,79.68
2019-04-05T10:11:39.226Z,79.64
2019-04-05T10:12:39.165Z,78.63
2019-04-05T10:13:39.157Z,78.38
2019-04-05T10:14:39.151Z,78.83
2019-04-05T10:15:39.122Z,78.21
2019-04-05T10:16:39.139Z,78.17
2019-04-05T10:17:39.107Z,78.49
2019-04-05T10:18:39.153Z,79.54
2019-04-05T10:19:49.234Z,79.17
2019-04-05T10:20:40.066Z,80.30
2019-04-05T10:21:39.102Z,80.09
2019-04-05T10:22:39.096Z,80.30
2019-04-05T10:23:39.055Z,79.99
2019-04-05T10:25:40.105Z,80.09
2019-04-05T10:26:39.009Z,80.60
2019-04-05T10:27:39.032Z,80.19
2019-04-05T10:28:38.989Z,79.99
2019-04-05T10:29:38.979Z,80.30
2019-04-05T10:30:38.978Z,79.96
2019-04-05T10:31:39.013Z,80.30
2019-04-05T10:32:38.982Z,80.40
2019-04-05T10:33:38.938Z,80.16
2019-04-05T10:34:38.929Z,80.09
2019-04-05T10:35:38.919Z,79.96
2019-04-05T10:36:38.917Z,80.40
2019-04-05T10:37:38.946Z,79.99
2019-04-05T10:38:38.888Z,80.40
2019-04-05T10:39:38.877Z,80.40
2019-04-05T10:40:38.857Z,80.91
2019-04-05T10:41:38.854Z,81.01
2019-04-05T10:42:38.893Z,80.71
2019-04-05T10:43:38.821Z,80.81
2019-04-05T10:44:38.820Z,80.91
2019-04-05T10:45:38.884Z,80.19
2019-04-05T10:46:38.799Z,80.40
2019-04-05T10:47:38.798Z,80.60
2019-04-05T10:48:38.777Z,80.26
2019-04-05T10:49:38.763Z,79.96
2019-04-05T10:50:38.754Z,79.75
2019-04-05T10:51:38.737Z,79.34
2019-04-05T10:52:38.765Z,79.34
2019-04-05T10:53:38.734Z,79.34
2019-04-05T10:54:38.717Z,79.54
2019-04-05T10:55:38.738Z,79.20
2019-04-05T10:56:38.678Z,78.89
2019-04-05T10:57:38.671Z,78.65
2019-04-05T10:58:38.683Z,77.83
2019-04-05T10:59:38.673Z,77.53
2019-04-05T11:00:38.651Z,77.12
2019-04-05T11:01:38.627Z,77.22
2019-04-05T11:02:38.625Z,77.32
2019-04-05T11:03:38.639Z,77.22
2019-04-05T11:04:38.601Z,77.22
2019-04-05T11:05:38.609Z,76.91
2019-04-05T11:06:38.575Z,76.61
2019-04-05T11:07:38.566Z,76.81
2019-04-05T11:08:38.585Z,76.50
2019-04-05T11:09:38.557Z,76.71
2019-04-05T11:10:38.550Z,76.81
2019-04-05T11:11:38.557Z,76.61
2019-04-05T11:12:38.526Z,76.09
2019-04-05T11:13:38.531Z,76.30
2019-04-05T11:14:38.500Z,75.99
2019-04-05T11:15:38.494Z,75.79
2019-04-05T11:16:38.509Z,76.30
2019-04-05T11:17:38.465Z,76.30
2019-04-05T11:18:38.519Z,76.40
2019-04-05T11:19:38.447Z,76.40
2019-04-05T11:20:38.422Z,76.40
2019-04-05T11:21:38.422Z,75.96
2019-04-05T11:22:38.433Z,75.75
2019-04-05T11:23:38.425Z,75.34
2019-04-05T11:24:38.405Z,75.34
2019-04-05T11:25:38.405Z,74.59
2019-04-05T11:26:38.383Z,74.49
2019-04-05T11:27:38.391Z,74.25
2019-04-05T11:29:39.407Z,73.03
2019-04-05T11:30:38.320Z,72.99
2019-04-05T11:31:38.309Z,72.58
2019-04-05T11:32:38.305Z,72.65
2019-04-05T11:33:38.333Z,72.34
2019-04-05T11:34:38.296Z,71.80
2019-04-05T11:35:38.308Z,71.50
2019-04-05T11:36:38.252Z,70.85
2019-04-05T11:37:39.633Z,70.44
2019-04-05T11:38:38.309Z,70.07
2019-04-05T11:39:38.239Z,70.14
2019-04-05T11:40:38.236Z,69.53
2019-04-05T11:41:38.204Z,69.29
2019-04-05T11:42:38.206Z,69.29
2019-04-05T11:43:38.206Z,68.37
2019-04-05T11:44:38.192Z,68.78
2019-04-05T11:45:38.169Z,68.61
2019-04-05T11:46:38.166Z,69.32
2019-04-05T11:47:38.145Z,69.73
2019-04-05T11:48:41.099Z,70.17
2019-04-05T11:49:38.126Z,70.37
2019-04-05T11:50:38.110Z,70.48
2019-04-05T11:51:38.108Z,70.78
2019-04-05T11:52:38.085Z,70.98
2019-04-05T11:53:38.126Z,71.09
2019-04-05T11:54:38.059Z,71.53
2019-04-05T11:55:38.064Z,70.98
2019-04-05T11:57:41.071Z,70.48
2019-04-05T11:58:38.127Z,70.07
2019-04-05T11:59:38.008Z,70.14
2019-04-05T12:00:38.002Z,68.78
2019-04-05T12:01:37.992Z,68.78
2019-04-05T12:02:37.998Z,68.78
2019-04-05T12:03:38.008Z,67.96
2019-04-05T12:04:37.984Z,68.37
2019-04-05T12:05:37.946Z,67.52
2019-04-05T12:06:37.935Z,67.93
2019-04-05T12:07:37.920Z,67.73
2019-04-05T12:08:37.992Z,67.86
2019-04-05T12:09:37.926Z,68.88
2019-04-05T12:10:38.060Z,68.57
2019-04-05T12:11:37.896Z,68.68
2019-04-05T12:12:37.887Z,68.75
2019-04-05T12:13:37.940Z,67.76
2019-04-05T12:14:37.869Z,68.27
2019-04-05T12:15:37.863Z,67.66
2019-04-05T12:16:37.822Z,68.65
2019-04-05T12:17:37.956Z,67.63
2019-04-05T12:18:37.858Z,67.73
2019-04-05T12:19:38.197Z,68.24
2019-04-05T12:20:47.948Z,68.10
2019-04-05T12:21:38.772Z,67.12
2019-04-05T12:22:37.776Z,67.49
2019-04-05T12:23:37.780Z,66.85
2019-04-05T12:24:37.739Z,65.91
2019-04-05T12:25:37.746Z,65.47
2019-04-05T12:26:37.736Z,65.41
2019-04-05T12:27:37.718Z,64.06
2019-04-05T12:28:37.746Z,63.48
2019-04-05T12:29:37.698Z,62.87
2019-04-05T12:30:38.275Z,63.48
2019-04-05T12:31:37.694Z,64.32
2019-04-05T12:32:41.262Z,64.62
2019-04-05T12:33:37.642Z,64.42
2019-04-05T12:34:37.667Z,64.59
2019-04-05T12:35:37.844Z,63.34
2019-04-05T12:36:37.645Z,62.17
2019-04-05T12:37:49.460Z,61.33
2019-04-05T12:38:38.591Z,60.79
2019-04-05T12:39:37.618Z,59.99
2019-04-05T12:40:38.437Z,60.52
2019-04-05T12:41:40.404Z,61.13
2019-04-05T12:42:37.558Z,61.16
2019-04-05T12:43:37.562Z,61.23
2019-04-05T12:44:37.611Z,60.95
2019-04-05T12:45:37.550Z,61.79
2019-04-05T12:46:37.501Z,62.51
2019-04-05T12:47:37.496Z,62.78
2019-04-05T12:48:37.552Z,61.16
2019-04-05T12:49:39.012Z,60.82
2019-04-05T12:50:37.462Z,60.79
2019-04-05T12:51:37.457Z,60.16
2019-04-05T12:52:37.504Z,58.78
2019-04-05T12:53:37.452Z,58.07
2019-04-05T12:54:37.490Z,57.87
2019-04-05T12:55:37.429Z,58.74